Latest Weather Observations for Yanco

IDN60801

Issued at 9:03 pm EST Tuesday 5 May 2015 (issued every 30 minutes, with the page automatically refreshed every 10 minutes)

About weather observations | Map of weather stations | Latest weather observations for NSW | Other Formats
Station Details ID: 074037 Name: YANCO AGRICULTURAL INSTITUTE Lat: -34.62 Lon: 146.43 Height: 164.0 m
Data from the previous 72 hours. | See also: Recent months at Yanco
Date/Time
EST
Temp
°C
App
Temp
°C
Dew
Point
Rel
Hum
%
Delta-T
°C
Wind Press
QNH
hPa
Press
MSL
hPa
Rain
since 9 am
mm
Dir
 
Spd
km/h
Gust
km/h
Spd
kts
Gust
kts
05/09:00pm 12.8 8.7 2.4 49 4.6 W 13 17 7 9 - - 0.0
05/08:30pm 13.6 9.1 2.2 46 5.0 WSW 15 24 8 13 - - 0.0
05/08:00pm 13.7 8.5 2.3 46 5.0 WSW 19 28 10 15 - - 0.0
05/07:30pm 14.1 9.0 3.3 48 4.9 WSW 19 30 10 16 - - 0.0
05/07:00pm 14.5 9.9 3.6 48 5.0 W 17 24 9 13 - - 0.0
05/06:30pm 14.8 10.3 4.2 49 4.9 W 17 24 9 13 - - 0.0
05/06:00pm 15.1 10.2 4.2 48 5.1 W 19 24 10 13 - - 0.0
05/05:30pm 15.4 10.6 4.8 49 5.0 WSW 19 30 10 16 - - 0.0
05/05:00pm 16.1 10.1 5.4 49 5.2 WSW 26 35 14 19 - - 0.0
05/04:33pm 17.9 10.8 3.8 39 6.7 W 30 52 16 28 - - 0.0
05/04:30pm 18.4 11.7 3.5 37 7.0 W 28 44 15 24 - - 0.0
05/04:00pm 18.9 12.0 2.3 33 7.7 W 28 43 15 23 - - 0.0
05/03:30pm 19.3 10.9 1.8 31 8.0 W 35 57 19 31 - - 0.0
05/03:00pm 20.9 13.0 2.2 29 8.8 WNW 33 57 18 31 - - 0.0
05/02:46pm 21.2 13.0 0.4 25 9.4 WNW 33 56 18 30 - - 0.0
05/02:30pm 21.1 13.3 1.9 28 9.0 W 32 44 17 24 - - 0.0
05/02:00pm 21.6 12.6 0.2 24 9.7 WNW 37 54 20 29 - - 0.0
05/01:30pm 21.9 12.8 1.6 26 9.5 WNW 39 59 21 32 - - 0.0
05/01:00pm 21.2 13.7 4.3 33 8.3 WNW 33 56 18 30 - - 0.0
05/12:54pm 21.9 14.4 4.5 32 8.6 WNW 33 54 18 29 - - 0.0
05/12:30pm 21.1 14.9 6.2 38 7.6 WNW 28 46 15 25 - - 0.0
05/12:00pm 21.9 14.9 5.8 35 8.1 WNW 32 52 17 28 - - 0.0
05/11:31am 21.4 15.2 6.1 37 7.8 WNW 28 52 15 28 - - 0.0
05/11:30am 21.5 15.3 6.2 37 7.8 WNW 28 41 15 22 - - 0.0
05/11:00am 20.7 15.3 6.3 39 7.3 WNW 24 35 13 19 - - 0.0
05/10:30am 19.9 12.2 5.2 38 7.3 NW 35 48 19 26 - - 0.0
05/10:19am 19.8 12.4 5.1 38 7.2 NW 33 54 18 29 - - 0.0
05/10:00am 20.1 13.3 5.0 37 7.4 NW 30 43 16 23 - - 0.0
05/09:30am 19.1 14.3 5.6 41 6.7 NNW 20 30 11 16 - - 0.0
05/09:00am 17.3 13.7 4.9 44 6.0 NNW 13 24 7 13 - - 0.0
05/08:30am 17.0 12.5 4.3 43 6.0 N 17 24 9 13 - - 0.0
05/08:00am 15.9 11.8 4.3 46 5.5 N 15 24 8 13 - - 0.0
05/07:30am 14.2 9.9 3.1 47 5.0 N 15 20 8 11 - - 0.0
05/07:00am 14.2 9.5 3.1 47 5.0 N 17 24 9 13 - - 0.0
05/06:30am 14.0 8.9 2.9 47 5.0 N 19 24 10 13 - - 0.0
05/06:00am 13.5 9.2 3.0 49 4.7 N 15 22 8 12 - - 0.0
05/05:30am 13.6 8.8 2.5 47 4.9 N 17 24 9 13 - - 0.0
05/05:00am 13.3 8.1 2.2 47 4.9 NNE 19 28 10 15 - - 0.0
05/04:30am 14.1 8.9 2.4 45 5.2 NNE 19 24 10 13 - - 0.0
05/04:00am 14.3 9.9 2.5 45 5.3 N 15 19 8 10 - - 0.0
05/03:30am 14.4 10.3 2.3 44 5.4 N 13 17 7 9 - - 0.0
05/03:00am 13.9 9.4 2.2 45 5.2 NNE 15 19 8 10 - - 0.0
05/02:30am 12.7 9.5 2.8 51 4.4 NNE 9 13 5 7 - - 0.0
05/02:00am 12.6 9.8 3.3 53 4.2 NNE 7 9 4 5 - - 0.0
05/01:30am 12.7 10.3 4.2 56 3.9 NNE 6 9 3 5 - - 0.0
05/01:00am 13.3 10.6 3.9 53 4.3 NNE 7 11 4 6 - - 0.0
05/12:30am 15.4 11.3 4.2 47 5.2 NE 15 20 8 11 - - 0.0
05/12:00am 14.4 11.6 5.2 54 4.4 NE 9 13 5 7 - - 0.0
 
Date/Time
EST
Temp
°C
App
Temp
°C
Dew
Point
Rel
Hum
%
Delta-T
°C
Wind Press
QNH
hPa
Press
MSL
hPa
Rain
since 9 am
mm
Dir
 
Spd
km/h
Gust
km/h
Spd
kts
Gust
kts
04/11:30pm 14.8 12.4 5.1 52 4.6 NNE 7 11 4 6 - - 0.0
04/11:00pm 14.5 11.3 5.0 53 4.5 ENE 11 13 6 7 - - 0.0
04/10:30pm 14.6 11.7 4.9 52 4.6 ENE 9 11 5 6 - - 0.0
04/10:00pm 15.3 12.8 5.0 50 4.9 NE 7 9 4 5 - - 0.0
04/09:30pm 14.7 12.3 5.2 53 4.5 ENE 7 9 4 5 - - 0.0
04/09:00pm 15.9 13.7 5.5 50 5.0 NNE 6 6 3 3 - - 0.0
04/08:30pm 13.7 12.7 5.6 58 3.8 CALM 0 0 0 0 - - 0.0
04/08:00pm 16.0 14.2 5.6 50 5.0 NNE 4 6 2 3 - - 0.0
04/07:30pm 17.1 16.1 5.7 47 5.6 CALM 0 0 0 0 - - 0.0
04/07:00pm 16.7 15.6 5.3 47 5.5 CALM 0 2 0 1 - - 0.0
04/06:30pm 17.9 16.6 5.8 45 6.0 NNW 2 2 1 1 - - 0.0
04/06:00pm 18.1 16.3 5.3 43 6.2 NW 4 4 2 2 - - 0.0
04/05:30pm 19.1 16.9 5.2 40 6.8 NW 6 7 3 4 - - 0.0
04/05:00pm 20.6 18.3 5.0 36 7.7 NW 6 9 3 5 - - 0.0
04/04:30pm 22.1 19.9 5.1 33 8.5 NNW 6 7 3 4 - - 0.0
04/04:00pm 22.3 19.3 3.9 30 9.0 NNW 9 13 5 7 - - 0.0
04/03:30pm 22.4 20.9 4.9 32 8.7 NW 2 6 1 3 - - 0.0
04/03:00pm 22.4 19.9 4.9 32 8.7 NW 7 15 4 8 - - 0.0
04/02:30pm 22.1 19.7 5.1 33 8.5 NNW 7 11 4 6 - - 0.0
04/02:00pm 22.2 20.0 6.0 35 8.2 W 7 13 4 7 - - 0.0
04/01:30pm 21.4 19.2 6.1 37 7.8 WSW 7 11 4 6 - - 0.0
04/01:00pm 21.9 20.5 7.3 39 7.6 SSE 4 7 2 4 - - 0.0
04/12:30pm 20.6 18.6 6.9 41 7.0 WSW 7 13 4 7 - - 0.0
04/12:00pm 20.2 18.5 7.6 44 6.5 NW 6 9 3 5 - - 0.0
04/11:30am 19.9 18.2 7.6 45 6.4 NW 6 9 3 5 - - 0.0
04/11:00am 19.2 18.0 7.9 48 5.8 W 4 7 2 4 - - 0.0
04/10:30am 18.2 16.8 8.7 54 5.0 NW 6 7 3 4 - - 0.0
04/10:00am 17.0 15.7 9.2 60 4.1 NW 6 6 3 3 - - 0.0
04/09:30am 15.1 14.1 8.8 66 3.2 N 4 6 2 3 - - 0.0
04/09:00am 12.7 11.4 7.6 71 2.5 NNW 4 6 2 3 - - 0.0
04/08:30am 11.0 9.5 6.9 76 2.0 NNW 4 6 2 3 - - 0.0
04/08:00am 9.2 7.9 5.8 79 1.6 NNE 2 2 1 1 - - 0.0
04/07:30am 8.4 7.0 5.3 81 1.4 NNE 2 2 1 1 - - 0.0
04/07:00am 8.3 6.2 5.6 83 1.2 NNE 6 6 3 3 - - 0.0
04/06:30am 7.9 6.0 5.0 82 1.3 NNW 4 6 2 3 - - 0.0
04/06:00am 8.2 6.3 5.1 81 1.4 NNW 4 4 2 2 - - 0.0
04/05:30am 7.9 6.5 5.5 85 1.1 WNW 2 2 1 1 - - 0.0
04/05:00am 9.2 7.9 5.8 79 1.6 NNW 2 2 1 1 - - 0.0
04/04:30am 8.8 7.4 5.4 79 1.5 NNW 2 4 1 2 - - 0.0
04/04:00am 10.1 8.5 6.3 77 1.8 NNW 4 4 2 2 - - 0.0
04/03:30am 10.3 9.1 6.3 76 1.9 WNW 2 2 1 1 - - 0.0
04/03:00am 10.0 8.6 5.6 74 2.0 WNW 2 4 1 2 - - 0.0
04/02:30am 10.2 9.2 5.6 73 2.1 CALM 0 0 0 0 - - 0.0
04/02:00am 10.2 9.2 5.4 72 2.2 CALM 0 0 0 0 - - 0.0
04/01:30am 10.5 9.4 5.3 70 2.4 CALM 0 0 0 0 - - 0.0
04/01:00am 11.6 9.9 5.7 67 2.8 WSW 4 4 2 2 - - 0.0
04/12:30am 11.7 10.0 5.8 67 2.8 W 4 4 2 2 - - 0.0
04/12:00am 12.0 10.2 5.4 64 3.1 WNW 4 6 2 3 - - 0.0
 
Date/Time
EST
Temp
°C
App
Temp
°C
Dew
Point
Rel
Hum
%
Delta-T
°C
Wind Press
QNH
hPa
Press
MSL
hPa
Rain
since 9 am
mm
Dir
 
Spd
km/h
Gust
km/h
Spd
kts
Gust
kts
03/11:30pm 12.5 11.5 5.7 63 3.2 CALM 0 0 0 0 - - 0.0
03/11:00pm 12.6 11.2 5.3 61 3.4 WSW 2 2 1 1 - - 0.0
03/10:30pm 13.1 11.6 5.0 58 3.8 WSW 2 4 1 2 - - 0.0
03/10:00pm 13.3 12.1 4.7 56 4.0 CALM 0 4 0 2 - - 0.0
03/09:30pm 13.8 12.6 4.4 53 4.4 CALM 0 0 0 0 - - 0.0
03/09:00pm 15.1 13.5 4.5 49 5.0 SW 2 2 1 1 - - 0.0
03/08:30pm 15.9 13.9 4.3 46 5.5 SW 4 4 2 2 - - 0.0
03/08:00pm 15.8 13.4 4.5 47 5.3 SW 6 6 3 3 - - 0.0
03/07:30pm 15.9 13.6 4.6 47 5.3 SW 6 7 3 4 - - 0.0
03/07:00pm 16.2 13.8 5.2 48 5.3 SW 7 9 4 5 - - 0.0
03/06:30pm 17.0 14.7 5.6 47 5.6 SW 7 7 4 4 - - 0.0
03/06:00pm 18.0 15.9 5.6 44 6.1 WSW 6 7 3 4 - - 0.0
03/05:30pm 19.1 16.8 5.6 41 6.7 SW 7 9 4 5 - - 0.0
03/05:00pm 21.3 18.1 5.2 35 8.0 SW 11 15 6 8 - - 0.0
03/04:30pm 22.4 19.0 5.8 34 8.4 SW 13 17 7 9 - - 0.0
03/04:00pm 22.7 19.2 5.6 33 8.7 SW 13 17 7 9 - - 0.0
03/03:30pm 22.8 18.6 5.7 33 8.7 SW 17 22 9 12 - - 0.0
03/03:00pm 23.1 19.4 6.4 34 8.6 SW 15 22 8 12 - - 0.0
03/02:30pm 23.0 19.8 6.7 35 8.4 SSW 13 22 7 12 - - 0.0
03/02:00pm 22.9 19.3 6.6 35 8.4 SSW 15 26 8 14 - - 0.0
03/01:30pm 23.0 18.4 6.7 35 8.4 SSW 20 33 11 18 - - 0.0
03/01:00pm 22.8 18.2 6.6 35 8.4 SSW 20 30 11 16 - - 0.0
03/12:30pm 22.6 17.6 6.4 35 8.3 SW 22 30 12 16 - - 0.0
03/12:00pm 22.4 17.9 7.0 37 8.0 SSW 20 26 11 14 - - 0.0
03/11:30am 22.4 18.3 8.5 41 7.4 SSW 20 28 11 15 - - 0.0
03/11:00am 22.0 18.0 9.2 44 6.9 SSW 20 28 11 15 - - 0.0
03/10:30am 21.0 17.3 10.2 50 5.9 SSW 20 28 11 15 - - 0.0
03/10:00am 19.4 17.5 11.9 62 4.2 SSW 13 20 7 11 - - 0.0
03/09:30am 18.5 17.1 12.3 67 3.5 SSW 11 13 6 7 - - 0.0
03/09:00am 16.1 15.0 12.1 77 2.2 SSW 9 13 5 7 - - 0.0
03/08:30am 14.1 13.4 11.4 84 1.5 SSW 6 7 3 4 - - 0.0
03/08:00am 13.4 12.9 10.8 84 1.4 SSE 4 6 2 3 - - 0.0
03/07:30am 12.3 11.8 10.7 90 0.8 SSE 4 6 2 3 - - 0.0
03/07:00am 11.7 10.6 10.6 93 0.6 S 7 9 4 5 - - 0.0
03/06:30am 11.0 8.9 9.6 91 0.7 SSW 11 11 6 6 - - 0.0
03/06:00am 12.0 10.0 10.1 88 1.0 SSW 11 13 6 7 - - 0.0
03/05:30am 11.7 9.6 9.8 88 1.0 SSW 11 15 6 8 - - 0.0
03/05:00am 10.6 8.7 9.0 90 0.8 SSW 9 13 5 7 - - 0.0
03/04:30am 13.9 12.8 10.5 80 1.8 SE 7 9 4 5 - - 0.0
03/04:00am 11.7 10.7 8.9 83 1.4 S 4 6 2 3 - - 0.0
03/03:30am 13.1 12.0 9.9 81 1.7 SSE 6 6 3 3 - - 0.0
03/03:00am 13.6 12.1 9.3 75 2.2 SSE 7 13 4 7 - - 0.0
03/02:30am 14.4 13.1 9.8 74 2.4 SSE 7 9 4 5 - - 0.0
03/02:00am 14.2 12.9 10.0 76 2.2 S 7 9 4 5 - - 0.0
03/01:30am 12.0 10.7 9.2 83 1.4 SSW 6 6 3 3 - - 0.0
03/01:00am 14.8 13.4 9.6 71 2.7 SSE 7 11 4 6 - - 0.0
03/12:30am 15.0 13.4 10.2 73 2.5 SE 9 11 5 6 - - 0.0
03/12:00am 14.7 13.5 10.3 75 2.3 SSW 7 7 4 4 - - 0.0
 
Date/Time
EST
Temp
°C
App
Temp
°C
Dew
Point
Rel
Hum
%
Delta-T
°C
Wind Press
QNH
hPa
Press
MSL
hPa
Rain
since 9 am
mm
Dir
 
Spd
km/h
Gust
km/h
Spd
kts
Gust
kts
02/11:30pm 14.8 14.6 10.6 76 2.2 SW 2 4 1 2 - - 0.0
02/11:00pm 13.8 13.0 9.6 76 2.2 S 4 6 2 3 - - 0.0
02/10:30pm 17.4 15.9 10.5 64 3.7 SSE 9 11 5 6 - - 0.0
02/10:00pm 16.2 15.1 10.1 67 3.2 SSE 6 9 3 5 - - 0.0
02/09:30pm 17.0 15.8 10.4 65 3.5 S 7 9 4 5 - - 0.0

Other Formats:

Comma delimited format used in spreadsheet applications
http://www.bom.gov.au/fwo/IDN60801/IDN60801.95705.axf

JavaScript Object Notation format (JSON) in row-major order
http://www.bom.gov.au/fwo/IDN60801/IDN60801.95705.json